Molengracht — PCJG — position and weather

sailwx.info

Track history (hours):
 
Tides and Currents Weather Stations Pressure Air Temp Water Temp Dewpoint Dewpoint Depression Visibility Wind Speed Wind Dir Waves Ship Positions

Molengracht

Last reported at 2016-Jul-24 11:18 UTC. Time now 2016-Jul-25 00:08 UTC.
Position N 31°18' E 123°09'.

Length 143 m; draft 7.4 m.

Type: Cargo ship. MMSI: 246770000.

Date/timePositionNaut miles runAvg speedWind from/ knotsBaromVisibWave heightAir tempDewpointWater temp
2016-Jul-24 11:18N 31°18' E 123°09'1215.5
2016-Jul-24 10:33N 31°12' E 122°57'1616.0
2016-Jul-24 09:32N 31°05' E 122°40'1515.0
2016-Jul-24 08:33N 31°06' E 122°23'1514.7
2016-Jul-24 07:34N 31°13' E 122°08'1813.9
2016-Jul-24 06:18N 31°17' E 121°48'7 9.6
2016-Jul-24 05:32N 31°21' E 121°40'9 9.4
2016-Jul-24 04:32N 31°25' E 121°31'1010.1
2016-Jul-24 03:34N 31°32' E 121°22'1312.7
2016-Jul-24 02:33N 31°41' E 121°11'1513.5
2016-Jul-24 01:25N 31°48' E 120°55'1314.2
2016-Jul-24 00:29N 31°60' E 120°49'1112.3
2016-Jul-23 23:33N 31°60' E 120°35'2 0.1
2016-Jul-23 02:05N 32°00' E 120°32'0 0.0
2016-Jul-22 14:04N 32°00' E 120°32'0 0.1
2016-Jul-22 08:26N 32°00' E 120°33'8 7.9
2016-Jul-22 07:27N 32°00' E 120°42'3 0.9
2016-Jul-22 04:26N 32°00' E 120°45'0 0.0
2016-Jul-21 18:20N 32°00' E 120°45'0 0.0
2016-Jul-21 16:32N 32°00' E 120°45'0 0.0
2016-Jul-21 12:23N 32°00' E 120°45'2 0.5
2016-Jul-21 09:28N 32°01' E 120°47'1111.6
2016-Jul-21 08:29N 31°51' E 120°54'1111.3
2016-Jul-21 07:33N 31°45' E 121°05'1313.3
2016-Jul-21 06:33N 31°37' E 121°16'1312.9
2016-Jul-21 05:33N 31°28' E 121°28'8 8.4
2016-Jul-21 04:33N 31°23' E 121°36'5111.9
2016-Jul-21 00:17N 31°01' E 122°29'6 1.3
2016-Jul-20 19:28N 31°03' E 122°36'42 1.4
2016-Jul-19 13:10N 31°13' E 121°48'912.1
2016-Jul-19 12:23N 31°20' E 121°41'911.2
2016-Jul-19 11:33N 31°25' E 121°31'9 8.9
2016-Jul-19 10:33N 31°31' E 121°24'1212.3
2016-Jul-19 09:33N 31°39' E 121°13'1212.3
2016-Jul-19 08:33N 31°46' E 121°01'1 0.1
2016-Jul-19 00:07N 31°46' E 121°03'5 9.1
2016-Jul-18 23:33N 31°43' E 121°08'0 0.0
2016-Jul-18 19:21N 31°43' E 121°08'0 0.1
2016-Jul-18 18:15N 31°43' E 121°08'0 0.1
2016-Jul-18 17:21N 31°44' E 121°08'0 0.0
2016-Jul-18 16:09N 31°44' E 121°08'0 0.0
2016-Jul-18 15:33N 31°43' E 121°08'0 0.1
2016-Jul-18 13:30N 31°43' E 121°08'0 0.0
2016-Jul-18 12:27N 31°43' E 121°08'0 0.0
2016-Jul-18 11:27N 31°43' E 121°08'0 0.0
2016-Jul-18 10:21N 31°43' E 121°08'0 0.0
2016-Jul-18 09:27N 31°43' E 121°08'0 0.0
2016-Jul-18 08:33N 31°43' E 121°08'0 0.0
2016-Jul-18 07:30N 31°43' E 121°08'0 0.0
2016-Jul-18 06:18N 31°43' E 121°08'0 0.0
2016-Jul-18 02:09N 31°43' E 121°08'  
Track history (hours):
 
Tides and Currents Weather Stations Pressure Air Temp Water Temp Dewpoint Dewpoint Depression Visibility Wind Speed Wind Dir Waves Ship Positions

Molengracht

Last reported at 2016-Jul-24 11:18 UTC. Time now 2016-Jul-25 00:08 UTC.
Position N 31°18' E 123°09'.

Length 143 m; draft 7.4 m.

Type: Cargo ship. MMSI: 246770000.

Date/timePositionNaut miles runAvg speedWind from/ knotsBaromVisibWave heightAir tempDewpointWater temp
2016-Jul-24 11:18N 31°18' E 123°09'1215.5
2016-Jul-24 10:33N 31°12' E 122°57'1616.0
2016-Jul-24 09:32N 31°05' E 122°40'1515.0
2016-Jul-24 08:33N 31°06' E 122°23'1514.7
2016-Jul-24 07:34N 31°13' E 122°08'1813.9
2016-Jul-24 06:18N 31°17' E 121°48'7 9.6
2016-Jul-24 05:32N 31°21' E 121°40'9 9.4
2016-Jul-24 04:32N 31°25' E 121°31'1010.1
2016-Jul-24 03:34N 31°32' E 121°22'1312.7
2016-Jul-24 02:33N 31°41' E 121°11'1513.5
2016-Jul-24 01:25N 31°48' E 120°55'1314.2
2016-Jul-24 00:29N 31°60' E 120°49'1112.3
2016-Jul-23 23:33N 31°60' E 120°35'2 0.1
2016-Jul-23 02:05N 32°00' E 120°32'0 0.0
2016-Jul-22 14:04N 32°00' E 120°32'0 0.1
2016-Jul-22 08:26N 32°00' E 120°33'8 7.9
2016-Jul-22 07:27N 32°00' E 120°42'3 0.9
2016-Jul-22 04:26N 32°00' E 120°45'0 0.0
2016-Jul-21 18:20N 32°00' E 120°45'0 0.0
2016-Jul-21 16:32N 32°00' E 120°45'0 0.0
2016-Jul-21 12:23N 32°00' E 120°45'2 0.5
2016-Jul-21 09:28N 32°01' E 120°47'1111.6
2016-Jul-21 08:29N 31°51' E 120°54'1111.3
2016-Jul-21 07:33N 31°45' E 121°05'1313.3
2016-Jul-21 06:33N 31°37' E 121°16'1312.9
2016-Jul-21 05:33N 31°28' E 121°28'8 8.4
2016-Jul-21 04:33N 31°23' E 121°36'5111.9
2016-Jul-21 00:17N 31°01' E 122°29'6 1.3
2016-Jul-20 19:28N 31°03' E 122°36'42 1.4
2016-Jul-19 13:10N 31°13' E 121°48'912.1
2016-Jul-19 12:23N 31°20' E 121°41'911.2
2016-Jul-19 11:33N 31°25' E 121°31'9 8.9
2016-Jul-19 10:33N 31°31' E 121°24'1212.3
2016-Jul-19 09:33N 31°39' E 121°13'1212.3
2016-Jul-19 08:33N 31°46' E 121°01'1 0.1
2016-Jul-19 00:07N 31°46' E 121°03'5 9.1
2016-Jul-18 23:33N 31°43' E 121°08'0 0.0
2016-Jul-18 19:21N 31°43' E 121°08'0 0.1
2016-Jul-18 18:15N 31°43' E 121°08'0 0.1
2016-Jul-18 17:21N 31°44' E 121°08'0 0.0
2016-Jul-18 16:09N 31°44' E 121°08'0 0.0
2016-Jul-18 15:33N 31°43' E 121°08'0 0.1
2016-Jul-18 13:30N 31°43' E 121°08'0 0.0
2016-Jul-18 12:27N 31°43' E 121°08'0 0.0
2016-Jul-18 11:27N 31°43' E 121°08'0 0.0
2016-Jul-18 10:21N 31°43' E 121°08'0 0.0
2016-Jul-18 09:27N 31°43' E 121°08'0 0.0
2016-Jul-18 08:33N 31°43' E 121°08'0 0.0
2016-Jul-18 07:30N 31°43' E 121°08'0 0.0
2016-Jul-18 06:18N 31°43' E 121°08'0 0.0
2016-Jul-18 02:09N 31°43' E 121°08'  

Dump ship's entire track history